createdAt,value
2022-12-03T00:00:42.819Z,53.80
2022-12-03T00:03:09.887Z,52.35
2022-12-03T00:05:36.519Z,54.40
2022-12-03T00:08:03.546Z,53.47
2022-12-03T00:10:30.610Z,56.92
2022-12-03T00:12:57.053Z,54.75
2022-12-03T00:15:23.541Z,50.47
2022-12-03T00:17:50.025Z,50.40
2022-12-03T00:20:23.549Z,49.72
2022-12-03T00:22:50.126Z,48.83
2022-12-03T00:25:17.269Z,45.97
2022-12-03T00:27:43.995Z,45.95
2022-12-03T00:30:11.224Z,53.45
2022-12-03T00:42:18.651Z,47.08
2022-12-03T00:44:50.027Z,45.38
2022-12-03T00:47:32.569Z,47.15
2022-12-03T00:49:59.362Z,50.83
2022-12-03T00:52:26.207Z,48.90
2022-12-03T00:54:53.326Z,49.85
2022-12-03T00:57:20.280Z,48.45
2022-12-03T00:59:48.703Z,49.38
2022-12-03T01:02:15.535Z,48.78
2022-12-03T01:04:42.222Z,48.40
2022-12-03T01:07:08.979Z,47.25
2022-12-03T01:09:35.606Z,48.35
2022-12-03T01:12:02.175Z,50.70
2022-12-03T01:14:29.044Z,43.08
2022-12-03T01:16:55.728Z,45.83
2022-12-03T01:19:22.398Z,48.13
2022-12-03T01:21:51.226Z,52.97
2022-12-03T01:24:19.220Z,49.00
2022-12-03T01:26:45.904Z,52.95
2022-12-03T01:29:12.479Z,49.40
2022-12-03T01:31:57.842Z,50.10
2022-12-03T01:34:28.668Z,53.00
2022-12-03T01:39:22.125Z,47.05
2022-12-03T01:41:51.547Z,48.33
2022-12-03T01:44:24.581Z,46.25
2022-12-03T01:46:53.310Z,46.58
2022-12-03T01:49:36.843Z,50.67
2022-12-03T01:52:03.698Z,53.80
2022-12-03T01:54:40.925Z,53.15
2022-12-03T01:57:20.158Z,48.80
2022-12-03T01:59:47.410Z,51.05
2022-12-03T02:02:19.100Z,52.00
2022-12-03T02:04:45.760Z,48.55
2022-12-03T02:07:20.736Z,51.35
2022-12-03T02:09:47.874Z,45.67
2022-12-03T02:12:17.607Z,48.28
2022-12-03T02:14:44.294Z,49.53
2022-12-03T02:17:11.998Z,46.88
2022-12-03T02:19:39.029Z,46.13
2022-12-03T02:22:32.343Z,47.58
2022-12-03T02:25:01.909Z,48.90
2022-12-03T02:27:28.907Z,52.53
2022-12-03T02:29:55.858Z,48.67
2022-12-03T02:32:23.516Z,47.63
2022-12-03T02:34:52.000Z,49.05
2022-12-03T02:37:33.201Z,49.58
2022-12-03T02:40:08.531Z,45.47
2022-12-03T02:42:35.075Z,47.55
2022-12-03T02:45:16.761Z,49.58
2022-12-03T02:47:49.234Z,46.95
2022-12-03T02:50:20.194Z,52.15
2022-12-03T02:55:19.280Z,47.28
2022-12-03T02:57:49.094Z,49.05
2022-12-03T03:00:19.463Z,53.22
2022-12-03T03:02:47.151Z,51.45
2022-12-03T03:05:15.448Z,49.58
2022-12-03T03:07:44.901Z,50.33
2022-12-03T03:10:16.637Z,47.00
2022-12-03T03:12:43.531Z,48.78
2022-12-03T03:15:14.220Z,50.88
2022-12-03T03:17:42.339Z,52.83
2022-12-03T03:20:10.402Z,54.35
2022-12-03T03:22:40.145Z,50.88
2022-12-03T03:25:13.246Z,47.58
2022-12-03T03:27:41.726Z,52.22
2022-12-03T03:30:10.249Z,51.15
2022-12-03T03:32:38.570Z,52.60
2022-12-03T03:35:06.455Z,46.88
2022-12-03T03:37:33.314Z,49.08
2022-12-03T03:40:00.005Z,54.30
2022-12-03T03:42:26.675Z,48.45
2022-12-03T03:44:53.690Z,52.10
2022-12-03T03:47:20.958Z,44.95
2022-12-03T03:49:49.453Z,50.17
2022-12-03T03:52:16.006Z,49.85
2022-12-03T03:54:42.844Z,49.90
2022-12-03T03:57:09.451Z,47.35
2022-12-03T03:59:36.250Z,49.90
2022-12-03T04:02:02.942Z,49.58
2022-12-03T04:04:35.207Z,49.35
2022-12-03T04:07:02.211Z,52.30
2022-12-03T04:09:28.814Z,50.75
2022-12-03T04:12:13.831Z,49.90
2022-12-03T04:14:40.324Z,51.22
2022-12-03T04:17:06.832Z,46.35
2022-12-03T04:19:35.905Z,51.92
2022-12-03T04:22:22.573Z,50.35
2022-12-03T04:24:49.200Z,47.85
2022-12-03T04:27:34.269Z,47.88
2022-12-03T04:30:00.960Z,48.30
2022-12-03T04:32:45.944Z,48.38
2022-12-03T04:35:31.288Z,50.50
2022-12-03T04:37:57.867Z,52.42
2022-12-03T04:40:43.032Z,49.35
2022-12-03T04:43:09.587Z,46.58
2022-12-03T04:45:36.261Z,46.95
2022-12-03T04:48:02.847Z,50.38
2022-12-03T04:50:29.613Z,53.60
2022-12-03T04:52:56.307Z,47.65
2022-12-03T04:55:22.904Z,48.47
2022-12-03T04:57:49.461Z,52.80
2022-12-03T05:00:16.354Z,49.60
2022-12-03T05:02:43.062Z,46.83
2022-12-03T05:05:10.970Z,51.53
2022-12-03T05:07:37.622Z,47.20
2022-12-03T05:10:05.687Z,49.13
2022-12-03T05:12:32.208Z,48.78
2022-12-03T05:14:59.173Z,52.72
2022-12-03T05:17:28.035Z,50.15
2022-12-03T05:20:12.997Z,47.65
2022-12-03T05:22:40.674Z,50.85
2022-12-03T05:25:07.590Z,48.25
2022-12-03T05:27:34.655Z,42.33
2022-12-03T05:30:01.151Z,48.83
2022-12-03T05:32:27.611Z,46.08
2022-12-03T05:34:54.301Z,47.95
2022-12-03T05:37:21.160Z,47.88
2022-12-03T05:39:47.713Z,45.58
2022-12-03T05:42:32.518Z,48.28
2022-12-03T05:44:58.939Z,47.38
2022-12-03T05:47:25.472Z,48.40
2022-12-03T05:49:51.962Z,44.83
2022-12-03T05:52:24.175Z,43.95
2022-12-03T05:54:50.845Z,46.33
2022-12-03T05:57:17.509Z,48.50
2022-12-03T05:59:44.055Z,47.08
2022-12-03T06:02:11.259Z,46.90
2022-12-03T06:04:37.787Z,48.58
2022-12-03T06:07:05.270Z,49.30
2022-12-03T06:09:33.229Z,45.35
2022-12-03T06:11:59.789Z,50.72
2022-12-03T06:14:26.523Z,41.58
2022-12-03T06:16:53.068Z,48.22
2022-12-03T06:19:19.498Z,43.60
2022-12-03T06:21:45.986Z,43.10
2022-12-03T06:24:12.559Z,46.42
2022-12-03T06:26:39.122Z,46.10
2022-12-03T06:29:05.582Z,42.50
2022-12-03T06:31:32.131Z,47.95
2022-12-03T06:33:58.691Z,40.33
2022-12-03T06:36:27.566Z,46.45
2022-12-03T06:38:54.735Z,41.22
2022-12-03T06:41:21.211Z,43.53
2022-12-03T06:43:47.641Z,41.75
2022-12-03T06:46:14.189Z,43.25
2022-12-03T06:48:40.700Z,40.35
2022-12-03T06:51:07.293Z,44.00
2022-12-03T06:53:33.816Z,41.95
2022-12-03T06:56:00.567Z,43.70
2022-12-03T06:58:27.309Z,40.78
2022-12-03T07:00:56.749Z,46.53
2022-12-03T07:03:23.537Z,44.67
2022-12-03T07:05:50.247Z,43.67
2022-12-03T07:08:16.997Z,42.00
2022-12-03T07:10:43.761Z,44.60
2022-12-03T07:13:10.456Z,43.28
2022-12-03T07:15:37.252Z,48.22
2022-12-03T07:18:03.881Z,44.50
2022-12-03T07:20:33.143Z,42.30
2022-12-03T07:22:59.790Z,41.92
2022-12-03T07:25:26.386Z,42.10
2022-12-03T07:27:52.967Z,43.22
2022-12-03T07:30:19.792Z,43.50
2022-12-03T07:32:47.320Z,44.55
2022-12-03T07:35:13.959Z,44.40
2022-12-03T07:37:40.697Z,43.53
2022-12-03T07:40:08.437Z,44.25
2022-12-03T07:42:35.350Z,39.85
2022-12-03T07:45:02.106Z,42.33
2022-12-03T07:47:28.778Z,44.58
2022-12-03T07:49:55.468Z,43.05
2022-12-03T07:52:22.267Z,41.25
2022-12-03T07:54:48.983Z,43.65
2022-12-03T07:57:15.632Z,42.97
2022-12-03T07:59:42.212Z,46.42
2022-12-03T08:02:09.456Z,49.03
2022-12-03T08:04:36.192Z,45.13
2022-12-03T08:07:02.987Z,46.65
2022-12-03T08:09:29.737Z,43.22
2022-12-03T08:11:58.900Z,46.92
2022-12-03T08:14:25.597Z,45.50
2022-12-03T08:16:52.367Z,42.70
2022-12-03T08:19:19.049Z,46.75
2022-12-03T08:21:45.785Z,46.13
2022-12-03T08:24:18.212Z,40.47
2022-12-03T08:26:46.811Z,51.90
2022-12-03T08:29:17.991Z,46.25
2022-12-03T08:31:52.159Z,43.10
2022-12-03T08:34:26.662Z,43.25
2022-12-03T08:37:01.410Z,44.20
2022-12-03T08:39:35.926Z,44.58
2022-12-03T08:42:28.739Z,43.85
2022-12-03T08:44:55.757Z,38.90
2022-12-03T08:47:24.434Z,42.45
2022-12-03T08:49:55.422Z,37.55
2022-12-03T08:52:28.060Z,39.72
2022-12-03T08:54:56.261Z,41.20
2022-12-03T08:57:32.030Z,41.15
2022-12-03T09:00:22.413Z,38.67
2022-12-03T09:03:00.023Z,40.85
2022-12-03T09:05:34.735Z,38.70
2022-12-03T09:08:01.664Z,37.20
2022-12-03T09:10:31.679Z,45.35
2022-12-03T09:12:58.756Z,44.67
2022-12-03T09:15:30.162Z,47.63
2022-12-03T09:17:57.382Z,41.15
2022-12-03T09:20:24.008Z,40.88
2022-12-03T09:22:50.744Z,41.95
2022-12-03T09:25:17.898Z,45.67
2022-12-03T09:27:50.398Z,40.08
2022-12-03T09:30:19.981Z,40.47
2022-12-03T09:32:52.365Z,40.53
2022-12-03T09:35:20.534Z,39.80
2022-12-03T09:37:52.087Z,39.53
2022-12-03T09:40:25.512Z,36.05
2022-12-03T09:42:52.823Z,38.92
2022-12-03T09:45:22.517Z,37.70
2022-12-03T09:47:50.596Z,40.78
2022-12-03T09:50:25.457Z,36.90
2022-12-03T09:52:59.732Z,38.17
2022-12-03T09:55:28.377Z,39.38
2022-12-03T09:57:57.261Z,39.00
2022-12-03T10:00:27.840Z,39.13
2022-12-03T10:02:59.387Z,37.78
2022-12-03T10:05:26.319Z,40.33
2022-12-03T10:07:53.417Z,41.13
2022-12-03T10:10:23.915Z,39.72
2022-12-03T10:12:52.065Z,36.70
2022-12-03T10:15:22.986Z,37.22
2022-12-03T10:17:54.527Z,41.88
2022-12-03T10:20:24.121Z,39.08
2022-12-03T10:22:50.916Z,44.67
2022-12-03T10:25:22.574Z,39.17
2022-12-03T10:28:00.362Z,39.45
2022-12-03T10:30:28.744Z,37.00
2022-12-03T10:32:58.376Z,31.77
2022-12-03T10:35:45.232Z,36.58
2022-12-03T10:38:18.073Z,31.25
2022-12-03T10:40:45.707Z,34.08
2022-12-03T10:43:18.328Z,35.33
2022-12-03T10:46:04.421Z,35.50
2022-12-03T10:48:31.379Z,35.25
2022-12-03T10:51:18.415Z,35.28
2022-12-03T10:53:49.000Z,34.38
2022-12-03T10:56:25.659Z,35.75
2022-12-03T10:58:53.490Z,28.40
2022-12-03T11:01:27.174Z,29.20
2022-12-03T11:04:03.598Z,32.22
2022-12-03T11:06:36.277Z,27.63
2022-12-03T11:09:09.234Z,29.90
2022-12-03T11:11:37.076Z,32.58
2022-12-03T11:14:08.431Z,32.65
2022-12-03T11:16:41.297Z,32.58
2022-12-03T11:19:38.209Z,30.02
2022-12-03T11:22:05.034Z,27.52
2022-12-03T11:24:38.944Z,28.48
2022-12-03T11:27:06.968Z,39.42
2022-12-03T11:29:56.233Z,25.70
2022-12-03T11:32:39.524Z,43.33
2022-12-03T11:35:26.408Z,28.85
2022-12-03T11:37:56.908Z,27.88
2022-12-03T11:40:30.643Z,38.25
2022-12-03T11:43:12.700Z,27.42
2022-12-03T11:45:43.850Z,27.25
2022-12-03T11:48:15.940Z,26.73
2022-12-03T11:50:53.350Z,23.65
2022-12-03T11:53:23.662Z,23.48
2022-12-03T11:56:08.452Z,23.30
2022-12-03T11:58:38.357Z,21.30
2022-12-03T12:01:07.453Z,25.83
2022-12-03T12:03:47.037Z,25.63
2022-12-03T12:06:19.801Z,21.08
2022-12-03T12:08:52.262Z,21.88
2022-12-03T12:11:36.838Z,22.67
2022-12-03T12:14:08.866Z,22.33
2022-12-03T12:16:52.837Z,19.83
2022-12-03T12:19:36.221Z,24.88
2022-12-03T12:22:25.101Z,22.85
2022-12-03T12:24:55.576Z,24.92
2022-12-03T12:27:45.505Z,24.58
2022-12-03T12:30:15.859Z,23.95
2022-12-03T12:32:48.456Z,23.38
2022-12-03T12:35:24.341Z,23.27
2022-12-03T12:37:59.948Z,23.98
2022-12-03T12:40:34.160Z,22.10
2022-12-03T12:43:15.231Z,22.95
2022-12-03T12:45:43.503Z,18.30
2022-12-03T12:48:19.735Z,17.48
2022-12-03T12:50:58.564Z,20.70
2022-12-03T12:53:30.841Z,21.38
2022-12-03T12:56:11.524Z,21.33
2022-12-03T12:58:38.075Z,17.95
2022-12-03T13:01:12.491Z,19.33
2022-12-03T13:03:40.157Z,20.60
2022-12-03T13:06:14.987Z,19.65
2022-12-03T13:08:45.271Z,20.35
2022-12-03T13:11:30.554Z,16.85
2022-12-03T13:13:57.410Z,19.52
2022-12-03T13:16:31.011Z,20.13
2022-12-03T13:19:00.736Z,19.08
2022-12-03T13:21:40.477Z,19.73
2022-12-03T13:24:29.570Z,18.88
2022-12-03T13:26:58.447Z,17.38
2022-12-03T13:29:27.089Z,20.33
2022-12-03T13:32:01.264Z,18.02
2022-12-03T13:34:43.365Z,18.52
2022-12-03T13:37:21.480Z,16.75
2022-12-03T13:39:55.734Z,17.40
2022-12-03T13:42:39.139Z,18.98
2022-12-03T13:47:45.835Z,19.70
2022-12-03T13:50:49.027Z,17.55
2022-12-03T13:53:27.195Z,18.75
2022-12-03T13:56:35.423Z,16.73
2022-12-03T13:59:11.296Z,15.82
2022-12-03T14:01:39.669Z,19.83
2022-12-03T14:04:30.787Z,19.48
2022-12-03T14:09:54.180Z,19.35
2022-12-03T14:12:26.730Z,19.20
2022-12-03T14:14:53.809Z,16.60
2022-12-03T14:17:20.670Z,19.65
2022-12-03T14:19:47.297Z,16.75
2022-12-03T14:22:18.704Z,17.58
2022-12-03T14:24:45.393Z,16.20
2022-12-03T14:27:11.974Z,18.63
2022-12-03T14:29:39.026Z,18.67
2022-12-03T14:32:08.182Z,22.00
2022-12-03T14:34:35.072Z,18.05
2022-12-03T14:37:04.584Z,20.38
2022-12-03T14:39:31.408Z,16.40
2022-12-03T14:42:13.475Z,15.68
2022-12-03T14:44:51.325Z,17.02
2022-12-03T14:47:25.995Z,17.90
2022-12-03T14:49:53.316Z,17.15
2022-12-03T14:52:54.059Z,16.48
2022-12-03T14:55:26.439Z,16.23
2022-12-03T14:57:54.357Z,15.70
2022-12-03T15:00:21.522Z,19.75
2022-12-03T15:02:48.488Z,15.85
2022-12-03T15:05:15.517Z,19.00
2022-12-03T15:07:42.369Z,16.38
2022-12-03T15:10:09.844Z,15.70
2022-12-03T15:12:39.089Z,17.13
2022-12-03T15:15:16.818Z,19.00
2022-12-03T15:17:52.288Z,16.75
2022-12-03T15:20:40.204Z,15.35
2022-12-03T15:23:34.437Z,15.00
2022-12-03T15:26:28.372Z,15.93
2022-12-03T15:29:03.735Z,19.73
2022-12-03T15:32:09.870Z,19.17
2022-12-03T15:34:48.835Z,19.17
2022-12-03T15:37:36.867Z,20.40
2022-12-03T15:40:11.251Z,18.23
2022-12-03T15:42:55.608Z,21.13
2022-12-03T15:45:31.936Z,18.88
2022-12-03T15:48:17.577Z,22.30
2022-12-03T15:51:12.424Z,30.25
2022-12-03T15:54:00.773Z,24.52
2022-12-03T15:57:02.403Z,24.92
2022-12-03T15:59:54.261Z,30.40
2022-12-03T16:02:38.792Z,24.00
2022-12-03T16:05:27.129Z,26.60
2022-12-03T16:07:57.536Z,19.42
2022-12-03T16:10:35.150Z,19.77
2022-12-03T16:13:07.694Z,25.17
2022-12-03T16:15:49.493Z,28.38
2022-12-03T16:18:23.109Z,20.60
2022-12-03T16:21:04.482Z,20.05
2022-12-03T16:23:53.264Z,20.77
2022-12-03T16:26:29.380Z,21.35
2022-12-03T16:29:18.537Z,25.42
2022-12-03T16:31:58.449Z,21.00
2022-12-03T16:35:07.152Z,20.98
2022-12-03T16:37:40.275Z,22.73
2022-12-03T16:40:09.843Z,21.95
2022-12-03T16:43:25.361Z,23.83
2022-12-03T16:47:03.680Z,19.90
2022-12-03T16:50:30.677Z,21.80
2022-12-03T16:53:42.734Z,22.45
2022-12-03T16:57:00.122Z,19.58
2022-12-03T16:59:43.056Z,22.88
2022-12-03T17:02:27.829Z,20.90
2022-12-03T17:05:03.151Z,20.77
2022-12-03T17:07:36.225Z,22.02
2022-12-03T17:10:04.347Z,20.73
2022-12-03T17:13:07.211Z,21.83
2022-12-03T17:15:27.866Z,23.13
2022-12-03T17:18:09.242Z,24.80
2022-12-03T17:20:39.397Z,24.17
2022-12-03T17:23:07.213Z,21.30
2022-12-03T17:25:52.007Z,23.10
2022-12-03T17:28:25.817Z,22.92
2022-12-03T17:31:19.343Z,25.73
2022-12-03T17:33:57.317Z,26.00
2022-12-03T17:36:29.728Z,22.23
2022-12-03T17:38:57.295Z,21.75
2022-12-03T17:42:03.782Z,23.85
2022-12-03T17:44:31.190Z,25.05
2022-12-03T17:47:01.321Z,35.63
2022-12-03T17:49:35.199Z,33.67
2022-12-03T17:52:38.653Z,27.30
2022-12-03T17:55:17.852Z,31.08
2022-12-03T17:57:48.516Z,32.75
2022-12-03T18:00:20.442Z,27.05
2022-12-03T18:02:50.552Z,28.23
2022-12-03T18:05:20.696Z,23.10
2022-12-03T18:07:51.219Z,23.83
2022-12-03T18:10:22.721Z,23.90
2022-12-03T18:12:49.592Z,28.33
2022-12-03T18:15:22.760Z,26.33
2022-12-03T18:18:02.078Z,27.17
2022-12-03T18:20:29.399Z,28.08
2022-12-03T18:23:01.643Z,30.70
2022-12-03T18:25:34.153Z,25.15
2022-12-03T18:28:06.655Z,27.63
2022-12-03T18:30:35.026Z,28.63
2022-12-03T18:33:08.296Z,24.23
2022-12-03T18:35:35.562Z,23.90
2022-12-03T18:38:05.590Z,29.25
2022-12-03T18:40:37.096Z,24.92
2022-12-03T18:43:13.895Z,26.40
2022-12-03T18:45:43.562Z,26.50
2022-12-03T18:48:18.296Z,25.60
2022-12-03T18:50:46.421Z,30.25
2022-12-03T18:53:18.986Z,29.95
2022-12-03T18:55:52.458Z,26.23
2022-12-03T18:58:22.576Z,27.92
2022-12-03T19:00:58.649Z,31.02
2022-12-03T19:03:28.107Z,27.20
2022-12-03T19:05:54.954Z,28.77
2022-12-03T19:08:24.681Z,29.10
2022-12-03T19:11:00.509Z,27.80
2022-12-03T19:13:30.099Z,25.60
2022-12-03T19:16:03.196Z,28.92
2022-12-03T19:18:38.575Z,26.63
2022-12-03T19:21:10.165Z,27.20
2022-12-03T19:23:40.506Z,25.25
2022-12-03T19:26:14.322Z,22.75
2022-12-03T19:28:44.436Z,27.95
2022-12-03T19:31:14.512Z,24.60
2022-12-03T19:34:26.224Z,29.60
2022-12-03T19:36:58.361Z,36.75
2022-12-03T19:39:37.264Z,34.78
2022-12-03T19:42:05.974Z,24.17
2022-12-03T19:44:33.079Z,23.95
2022-12-03T19:47:03.020Z,23.10
2022-12-03T19:49:33.081Z,26.33
2022-12-03T19:52:03.031Z,26.80
2022-12-03T19:54:32.722Z,27.00
2022-12-03T19:56:59.588Z,23.75
2022-12-03T19:59:26.351Z,23.45
2022-12-03T20:01:57.749Z,22.63
2022-12-03T20:04:24.759Z,25.73
2022-12-03T20:06:51.543Z,24.63
2022-12-03T20:09:18.281Z,26.50
2022-12-03T20:11:46.026Z,26.83
2022-12-03T20:14:17.554Z,23.58
2022-12-03T20:16:44.927Z,25.77
2022-12-03T20:19:13.896Z,27.33
2022-12-03T20:21:41.571Z,23.52
2022-12-03T20:24:12.729Z,24.70
2022-12-03T20:26:41.548Z,29.60
2022-12-03T20:29:08.504Z,28.05
2022-12-03T20:31:35.566Z,30.83
2022-12-03T20:34:05.929Z,27.75
2022-12-03T20:36:35.942Z,27.95
2022-12-03T20:39:06.456Z,25.98
2022-12-03T20:42:03.587Z,25.27
2022-12-03T20:45:21.407Z,25.98
2022-12-03T20:48:06.540Z,26.45
2022-12-03T20:51:48.159Z,27.58
2022-12-03T20:54:29.161Z,27.00
2022-12-03T20:56:56.362Z,26.40
2022-12-03T20:59:27.751Z,24.52
2022-12-03T21:02:03.898Z,27.20
2022-12-03T21:04:33.551Z,24.60
2022-12-03T21:07:42.162Z,26.48
2022-12-03T21:11:10.058Z,29.02
2022-12-03T21:14:01.299Z,26.40
2022-12-03T21:17:25.509Z,26.40
2022-12-03T21:20:07.819Z,27.40
2022-12-03T21:22:56.019Z,30.17
2022-12-03T21:26:06.078Z,25.65
2022-12-03T21:29:24.820Z,24.30
2022-12-03T21:32:08.296Z,24.67
2022-12-03T21:34:54.024Z,27.08
2022-12-03T21:37:26.939Z,27.13
2022-12-03T21:39:53.987Z,24.58
2022-12-03T21:42:35.375Z,26.92
2022-12-03T21:45:07.079Z,23.83
2022-12-03T21:47:37.246Z,26.63
2022-12-03T21:50:08.877Z,29.02
2022-12-03T21:52:38.183Z,23.65
2022-12-03T21:55:05.508Z,24.17
2022-12-03T21:57:37.612Z,23.45
2022-12-03T22:00:07.857Z,23.38
2022-12-03T22:02:35.650Z,24.63
2022-12-03T22:05:04.871Z,23.35
2022-12-03T22:07:33.461Z,25.70
2022-12-03T22:10:03.546Z,23.98
2022-12-03T22:12:35.425Z,25.30
2022-12-03T22:15:18.745Z,25.08
2022-12-03T22:18:03.956Z,22.08
2022-12-03T22:20:44.070Z,21.55
2022-12-03T22:23:33.218Z,23.20
2022-12-03T22:26:12.233Z,22.75
2022-12-03T22:28:47.146Z,22.92
2022-12-03T22:31:15.001Z,22.67
2022-12-03T22:33:42.254Z,23.45
2022-12-03T22:36:19.740Z,22.30
2022-12-03T22:38:47.634Z,18.92
2022-12-03T22:41:16.817Z,21.75
2022-12-03T22:43:45.505Z,22.08
2022-12-03T22:46:18.151Z,22.48
2022-12-03T22:48:52.291Z,32.58
2022-12-03T22:51:24.488Z,24.98
2022-12-03T22:54:01.990Z,22.58
2022-12-03T22:56:30.593Z,21.48
2022-12-03T22:59:00.523Z,23.10
2022-12-03T23:01:31.511Z,21.83
2022-12-03T23:04:02.145Z,20.15
2022-12-03T23:06:36.485Z,23.02
2022-12-03T23:09:05.678Z,20.55
2022-12-03T23:11:35.760Z,22.98
2022-12-03T23:14:03.130Z,20.27
2022-12-03T23:16:35.091Z,19.25
2022-12-03T23:19:03.168Z,19.95
2022-12-03T23:21:33.073Z,17.00
2022-12-03T23:24:04.406Z,18.15
2022-12-03T23:26:35.251Z,18.52
2022-12-03T23:31:33.523Z,18.75
2022-12-03T23:34:01.521Z,18.30
2022-12-03T23:36:34.394Z,19.83
2022-12-03T23:39:05.901Z,17.33
2022-12-03T23:41:35.380Z,17.80
2022-12-03T23:44:04.866Z,19.08
2022-12-03T23:46:36.031Z,18.17
2022-12-03T23:49:05.055Z,17.17
2022-12-03T23:51:32.047Z,17.90
2022-12-03T23:54:00.966Z,20.35
2022-12-03T23:56:30.159Z,19.98
2022-12-03T23:58:58.141Z,19.15
